createdAt,value
2019-01-04T00:01:35.890Z,20.67
2019-01-04T00:04:16.551Z,20.60
2019-01-04T00:06:45.773Z,21.40
2019-01-04T00:09:15.079Z,21.17
2019-01-04T00:11:44.492Z,19.57
2019-01-04T00:14:13.930Z,18.73
2019-01-04T00:16:43.279Z,19.07
2019-01-04T00:19:12.714Z,19.17
2019-01-04T00:21:42.167Z,19.50
2019-01-04T00:24:11.453Z,15.80
2019-01-04T00:26:40.795Z,18.13
2019-01-04T00:29:10.130Z,18.80
2019-01-04T00:31:39.494Z,17.73
2019-01-04T00:34:08.868Z,22.23
2019-01-04T00:36:38.093Z,17.83
2019-01-04T00:39:07.873Z,18.80
2019-01-04T00:41:37.160Z,17.40
2019-01-04T00:44:06.478Z,17.40
2019-01-04T00:46:35.848Z,16.90
2019-01-04T00:49:05.234Z,17.53
2019-01-04T00:51:34.552Z,17.07
2019-01-04T00:54:03.865Z,16.10
2019-01-04T00:57:29.831Z,16.30
2019-01-04T01:00:35.570Z,15.10
2019-01-04T01:03:40.406Z,17.13
2019-01-04T01:07:07.183Z,15.87
2019-01-04T01:10:16.318Z,17.90
2019-01-04T01:13:21.497Z,16.27
2019-01-04T01:16:40.499Z,17.30
2019-01-04T01:19:49.886Z,17.03
2019-01-04T01:22:56.071Z,16.37
2019-01-04T01:26:01.109Z,16.70
2019-01-04T01:29:29.480Z,16.00
2019-01-04T01:32:34.578Z,16.83
2019-01-04T01:35:40.855Z,16.23
2019-01-04T01:38:46.012Z,15.50
2019-01-04T01:41:55.951Z,16.20
2019-01-04T01:44:49.923Z,17.50
2019-01-04T01:47:55.248Z,16.10
2019-01-04T01:51:16.954Z,15.50
2019-01-04T01:53:47.126Z,16.13
2019-01-04T01:56:16.569Z,16.00
2019-01-04T01:58:46.074Z,17.97
2019-01-04T02:01:15.401Z,17.63
2019-01-04T02:03:44.703Z,17.10
2019-01-04T02:06:13.959Z,16.20
2019-01-04T02:08:43.327Z,17.30
2019-01-04T02:11:12.619Z,16.20
2019-01-04T02:13:41.933Z,16.67
2019-01-04T02:16:11.173Z,18.10
2019-01-04T02:18:40.519Z,17.57
2019-01-04T02:21:09.834Z,16.73
2019-01-04T02:23:39.153Z,17.73
2019-01-04T02:26:08.474Z,17.07
2019-01-04T02:28:37.768Z,19.20
2019-01-04T02:31:07.036Z,17.23
2019-01-04T02:33:36.423Z,16.33
2019-01-04T02:36:05.711Z,17.03
2019-01-04T02:38:35.006Z,20.33
2019-01-04T02:41:04.420Z,16.50
2019-01-04T02:43:33.679Z,17.90
2019-01-04T02:46:03.030Z,18.07
2019-01-04T02:48:32.328Z,16.60
2019-01-04T02:51:01.608Z,16.07
2019-01-04T02:53:30.919Z,17.10
2019-01-04T02:56:00.217Z,17.93
2019-01-04T02:58:29.531Z,18.77
2019-01-04T03:00:58.810Z,19.67
2019-01-04T03:03:28.089Z,18.43
2019-01-04T03:05:57.378Z,17.70
2019-01-04T03:08:26.829Z,17.87
2019-01-04T03:10:56.123Z,17.77
2019-01-04T03:13:25.495Z,18.20
2019-01-04T03:15:54.841Z,17.57
2019-01-04T03:18:24.175Z,17.63
2019-01-04T03:20:53.426Z,20.43
2019-01-04T03:23:22.758Z,18.37
2019-01-04T03:25:52.294Z,18.03
2019-01-04T03:28:21.567Z,19.13
2019-01-04T03:30:50.925Z,18.47
2019-01-04T03:33:20.255Z,18.20
2019-01-04T03:35:49.605Z,19.27
2019-01-04T03:38:18.966Z,20.30
2019-01-04T03:40:48.236Z,18.13
2019-01-04T03:43:17.677Z,21.50
2019-01-04T03:45:47.048Z,18.13
2019-01-04T03:48:16.395Z,20.40
2019-01-04T03:50:45.750Z,20.70
2019-01-04T03:53:15.054Z,19.43
2019-01-04T03:55:44.315Z,21.27
2019-01-04T03:58:13.573Z,21.90
2019-01-04T04:00:42.864Z,22.50
2019-01-04T04:03:12.284Z,19.80
2019-01-04T04:05:41.606Z,20.40
2019-01-04T04:08:10.926Z,23.40
2019-01-04T04:10:40.281Z,20.27
2019-01-04T04:13:09.622Z,22.03
2019-01-04T04:15:39.132Z,20.40
2019-01-04T04:18:08.451Z,20.40
2019-01-04T04:20:37.821Z,20.37
2019-01-04T04:23:07.223Z,20.50
2019-01-04T04:25:36.569Z,21.60
2019-01-04T04:28:05.966Z,21.50
2019-01-04T04:30:35.276Z,21.63
2019-01-04T04:33:04.651Z,20.00
2019-01-04T04:35:33.952Z,21.57
2019-01-04T04:38:03.224Z,21.20
2019-01-04T04:40:32.509Z,20.67
2019-01-04T04:43:01.831Z,21.10
2019-01-04T04:45:31.123Z,25.87
2019-01-04T04:48:00.396Z,20.90
2019-01-04T04:50:29.683Z,23.60
2019-01-04T04:52:59.028Z,25.00
2019-01-04T04:55:28.334Z,24.70
2019-01-04T04:57:57.671Z,22.10
2019-01-04T05:00:26.963Z,22.13
2019-01-04T05:02:56.267Z,22.13
2019-01-04T05:05:25.600Z,19.97
2019-01-04T05:07:54.992Z,21.27
2019-01-04T05:10:24.334Z,21.70
2019-01-04T05:12:53.739Z,22.00
2019-01-04T05:15:23.022Z,19.43
2019-01-04T05:17:52.492Z,18.90
2019-01-04T05:20:22.091Z,17.50
2019-01-04T05:22:51.415Z,17.50
2019-01-04T05:25:21.476Z,17.50
2019-01-04T05:27:50.703Z,16.90
2019-01-04T05:30:20.102Z,18.07
2019-01-04T05:32:49.385Z,16.93
2019-01-04T05:35:18.657Z,17.77
2019-01-04T05:37:47.983Z,17.07
2019-01-04T05:40:17.272Z,16.93
2019-01-04T05:42:46.598Z,17.70
2019-01-04T05:45:15.918Z,17.70
2019-01-04T05:47:45.224Z,15.43
2019-01-04T05:50:14.535Z,16.10
2019-01-04T05:52:43.835Z,14.80
2019-01-04T05:55:13.172Z,16.50
2019-01-04T05:57:42.464Z,14.53
2019-01-04T06:00:11.863Z,16.40
2019-01-04T06:02:41.281Z,16.67
2019-01-04T06:05:10.594Z,17.77
2019-01-04T06:07:39.882Z,15.90
2019-01-04T06:10:09.247Z,16.50
2019-01-04T06:12:38.536Z,18.20
2019-01-04T06:15:07.869Z,17.23
2019-01-04T06:17:37.146Z,16.00
2019-01-04T06:20:06.851Z,17.70
2019-01-04T06:22:36.123Z,17.70
2019-01-04T06:25:05.606Z,14.87
2019-01-04T06:27:35.123Z,15.03
2019-01-04T06:30:05.185Z,14.27
2019-01-04T06:32:34.450Z,14.77
2019-01-04T06:35:03.816Z,15.73
2019-01-04T06:37:33.079Z,14.90
2019-01-04T06:40:02.394Z,15.40
2019-01-04T06:42:31.736Z,16.30
2019-01-04T06:45:01.002Z,16.10
2019-01-04T06:47:30.288Z,15.13
2019-01-04T06:49:59.666Z,14.87
2019-01-04T06:52:28.984Z,18.53
2019-01-04T06:55:33.566Z,16.83
2019-01-04T06:58:02.963Z,13.83
2019-01-04T07:00:32.290Z,14.90
2019-01-04T07:03:02.114Z,15.87
2019-01-04T07:05:31.811Z,13.97
2019-01-04T07:08:01.255Z,17.17
2019-01-04T07:10:30.622Z,16.00
2019-01-04T07:12:59.890Z,14.37
2019-01-04T07:15:31.665Z,13.90
2019-01-04T07:18:00.944Z,14.70
2019-01-04T07:20:30.374Z,15.47
2019-01-04T07:22:59.986Z,14.00
2019-01-04T07:25:29.325Z,15.43
2019-01-04T07:27:58.655Z,14.37
2019-01-04T07:30:28.070Z,15.20
2019-01-04T07:32:59.102Z,13.73
2019-01-04T07:35:28.441Z,13.87
2019-01-04T07:37:57.771Z,15.10
2019-01-04T07:40:27.054Z,15.77
2019-01-04T07:42:56.423Z,14.87
2019-01-04T07:45:25.984Z,15.20
2019-01-04T07:47:55.286Z,15.67
2019-01-04T07:50:24.591Z,16.13
2019-01-04T07:52:53.912Z,16.43
2019-01-04T07:55:23.283Z,16.50
2019-01-04T07:57:52.712Z,15.80
2019-01-04T08:00:22.110Z,16.07
2019-01-04T08:02:55.818Z,15.57
2019-01-04T08:05:26.763Z,17.03
2019-01-04T08:07:56.139Z,19.10
2019-01-04T08:10:25.659Z,17.57
2019-01-04T08:12:54.950Z,16.70
2019-01-04T08:15:24.234Z,17.37
2019-01-04T08:17:53.614Z,17.17
2019-01-04T08:20:23.041Z,20.50
2019-01-04T08:22:52.514Z,17.83
2019-01-04T08:25:21.804Z,17.90
2019-01-04T08:27:51.234Z,18.60
2019-01-04T08:30:21.130Z,19.00
2019-01-04T08:32:50.467Z,20.23
2019-01-04T08:35:19.750Z,19.67
2019-01-04T08:37:49.051Z,19.43
2019-01-04T08:40:18.381Z,16.87
2019-01-04T08:42:47.843Z,19.03
2019-01-04T08:45:17.206Z,19.30
2019-01-04T08:47:46.589Z,17.37
2019-01-04T08:50:17.509Z,16.60
2019-01-04T08:52:47.033Z,18.93
2019-01-04T08:55:28.984Z,17.33
2019-01-04T08:57:58.362Z,15.50
2019-01-04T09:00:27.836Z,17.93
2019-01-04T09:02:57.153Z,17.63
2019-01-04T09:05:26.676Z,17.43
2019-01-04T09:07:56.042Z,19.70
2019-01-04T09:10:25.417Z,15.23
2019-01-04T09:12:54.855Z,14.50
2019-01-04T09:15:24.204Z,12.90
2019-01-04T09:17:53.574Z,13.60
2019-01-04T09:20:22.844Z,12.87
2019-01-04T09:22:52.376Z,15.00
2019-01-04T09:25:21.745Z,14.83
2019-01-04T09:27:51.102Z,13.33
2019-01-04T09:30:20.602Z,14.00
2019-01-04T09:32:49.892Z,11.57
2019-01-04T09:35:19.226Z,11.10
2019-01-04T09:37:48.700Z,12.03
2019-01-04T09:40:18.003Z,11.13
2019-01-04T09:42:48.544Z,11.67
2019-01-04T09:45:17.843Z,11.57
2019-01-04T09:47:47.207Z,11.47
2019-01-04T09:50:16.488Z,8.80
2019-01-04T09:52:46.921Z,11.23
2019-01-04T09:55:16.389Z,9.50
2019-01-04T09:57:46.217Z,11.27
2019-01-04T10:00:16.122Z,9.13
2019-01-04T10:02:45.626Z,9.60
2019-01-04T10:05:15.156Z,10.47
2019-01-04T10:07:45.456Z,9.57
2019-01-04T10:10:15.291Z,8.90
2019-01-04T10:12:44.719Z,10.40
2019-01-04T10:15:17.044Z,8.10
2019-01-04T10:17:46.857Z,8.37
2019-01-04T10:20:16.263Z,9.33
2019-01-04T10:22:45.735Z,10.50
2019-01-04T10:25:15.238Z,10.27
2019-01-04T10:27:44.775Z,10.80
2019-01-04T10:30:29.982Z,11.03
2019-01-04T10:32:59.431Z,12.23
2019-01-04T10:35:28.753Z,12.67
2019-01-04T10:38:00.433Z,10.90
2019-01-04T10:40:30.213Z,12.10
2019-01-04T10:42:59.775Z,12.43
2019-01-04T10:45:29.179Z,11.83
2019-01-04T10:47:58.777Z,10.33
2019-01-04T10:50:28.152Z,10.03
2019-01-04T10:52:57.768Z,11.40
2019-01-04T10:55:28.199Z,11.40
2019-01-04T10:57:58.071Z,10.80
2019-01-04T11:00:27.660Z,10.20
2019-01-04T11:02:57.450Z,9.77
2019-01-04T11:05:26.843Z,10.33
2019-01-04T11:07:56.151Z,10.93
2019-01-04T11:10:25.446Z,11.30
2019-01-04T11:12:54.775Z,10.90
2019-01-04T11:15:24.094Z,11.30
2019-01-04T11:17:53.406Z,10.70
2019-01-04T11:20:58.719Z,10.67
2019-01-04T11:24:03.848Z,11.57
2019-01-04T11:26:46.713Z,11.90
2019-01-04T11:30:15.207Z,11.50
2019-01-04T11:33:30.872Z,10.03
2019-01-04T11:36:26.138Z,9.80
2019-01-04T11:39:25.147Z,11.47
2019-01-04T11:42:25.327Z,11.43
2019-01-04T11:45:28.442Z,10.27
2019-01-04T11:48:24.287Z,10.17
2019-01-04T11:51:35.657Z,9.77
2019-01-04T11:54:10.017Z,10.43
2019-01-04T11:56:39.387Z,9.37
2019-01-04T11:59:08.739Z,10.40
2019-01-04T12:01:38.142Z,8.73
2019-01-04T12:04:07.454Z,9.30
2019-01-04T12:06:36.815Z,8.60
2019-01-04T12:09:08.474Z,9.73
2019-01-04T12:11:40.865Z,9.80
2019-01-04T12:14:10.329Z,8.60
2019-01-04T12:16:39.823Z,8.80
2019-01-04T12:19:09.319Z,10.00
2019-01-04T12:21:39.159Z,10.47
2019-01-04T12:24:08.480Z,10.13
2019-01-04T12:26:37.903Z,9.20
2019-01-04T12:29:07.191Z,9.13
2019-01-04T12:31:36.487Z,8.90
2019-01-04T12:34:05.796Z,9.07
2019-01-04T12:36:35.615Z,8.90
2019-01-04T12:39:07.643Z,9.50
2019-01-04T12:41:37.011Z,9.03
2019-01-04T12:44:06.651Z,9.57
2019-01-04T12:46:35.937Z,8.07
2019-01-04T12:49:05.325Z,9.37
2019-01-04T12:51:34.941Z,9.07
2019-01-04T12:54:04.495Z,8.77
2019-01-04T12:56:34.157Z,8.70
2019-01-04T12:59:03.518Z,9.40
2019-01-04T13:01:32.954Z,8.70
2019-01-04T13:04:02.287Z,10.50
2019-01-04T13:06:31.635Z,9.90
2019-01-04T13:09:03.148Z,8.50
2019-01-04T13:11:32.549Z,9.00
2019-01-04T13:14:02.158Z,7.97
2019-01-04T13:16:31.588Z,8.83
2019-01-04T13:19:02.196Z,10.10
2019-01-04T13:21:32.169Z,8.97
2019-01-04T13:24:01.684Z,7.67
2019-01-04T13:26:31.039Z,8.87
2019-01-04T13:29:00.424Z,6.80
2019-01-04T13:31:29.845Z,8.07
2019-01-04T13:33:59.326Z,8.20
2019-01-04T13:36:29.079Z,8.50
2019-01-04T13:39:09.778Z,9.33
2019-01-04T13:41:39.384Z,8.83
2019-01-04T13:44:09.153Z,9.17
2019-01-04T13:46:39.970Z,9.13
2019-01-04T13:49:09.480Z,8.60
2019-01-04T13:51:38.851Z,7.10
2019-01-04T13:54:08.334Z,8.40
2019-01-04T13:56:37.896Z,8.57
2019-01-04T13:59:07.230Z,8.77
2019-01-04T14:01:37.305Z,9.20
2019-01-04T14:04:06.891Z,8.83
2019-01-04T14:06:36.774Z,8.70
2019-01-04T14:09:08.178Z,7.53
2019-01-04T14:11:37.481Z,7.60
2019-01-04T14:14:06.944Z,8.67
2019-01-04T14:16:36.289Z,8.20
2019-01-04T14:19:06.345Z,7.87
2019-01-04T14:21:36.051Z,8.70
2019-01-04T14:24:05.523Z,8.37
2019-01-04T14:26:34.833Z,8.40
2019-01-04T14:29:04.125Z,9.73
2019-01-04T14:31:34.216Z,8.53
2019-01-04T14:34:03.573Z,8.63
2019-01-04T14:36:32.864Z,8.13
2019-01-04T14:39:02.231Z,6.97
2019-01-04T14:41:31.592Z,8.23
2019-01-04T14:44:00.983Z,7.47
2019-01-04T14:46:32.850Z,8.70
2019-01-04T14:49:02.229Z,8.90
2019-01-04T14:51:31.508Z,8.67
2019-01-04T14:54:00.865Z,9.23
2019-01-04T14:56:30.219Z,9.00
2019-01-04T14:58:59.828Z,9.43
2019-01-04T15:01:29.142Z,8.23
2019-01-04T15:03:58.459Z,9.00
2019-01-04T15:06:27.775Z,11.13
2019-01-04T15:08:57.210Z,10.00
2019-01-04T15:11:26.494Z,8.90
2019-01-04T15:13:55.791Z,8.70
2019-01-04T15:16:25.071Z,8.70
2019-01-04T15:18:54.560Z,8.90
2019-01-04T15:21:24.578Z,8.97
2019-01-04T15:23:54.467Z,10.97
2019-01-04T15:26:24.573Z,10.50
2019-01-04T15:28:54.052Z,10.00
2019-01-04T15:31:23.775Z,10.20
2019-01-04T15:33:53.369Z,9.73
2019-01-04T15:36:22.850Z,9.57
2019-01-04T15:38:52.143Z,9.67
2019-01-04T15:41:21.668Z,8.90
2019-01-04T15:43:51.414Z,9.20
2019-01-04T15:46:21.548Z,9.03
2019-01-04T15:48:50.939Z,8.67
2019-01-04T15:51:20.506Z,8.67
2019-01-04T15:53:50.936Z,7.57
2019-01-04T15:56:22.064Z,8.67
2019-01-04T15:58:51.888Z,9.27
2019-01-04T16:01:21.813Z,10.97
2019-01-04T16:03:51.610Z,10.60
2019-01-04T16:06:21.418Z,9.70
2019-01-04T16:08:51.058Z,11.67
2019-01-04T16:11:27.881Z,11.20
2019-01-04T16:14:00.299Z,9.93
2019-01-04T16:16:29.643Z,10.70
2019-01-04T16:18:58.997Z,9.00
2019-01-04T16:21:37.036Z,10.97
2019-01-04T16:24:07.862Z,8.67
2019-01-04T16:26:37.946Z,6.97
2019-01-04T16:29:07.595Z,8.13
2019-01-04T16:31:37.114Z,7.47
2019-01-04T16:34:06.599Z,8.67
2019-01-04T16:36:38.698Z,7.63
2019-01-04T16:39:11.360Z,7.40
2019-01-04T16:41:40.911Z,7.57
2019-01-04T16:44:11.846Z,8.37
2019-01-04T16:46:41.242Z,7.97
2019-01-04T16:49:10.849Z,8.53
2019-01-04T16:51:40.290Z,8.37
2019-01-04T16:54:09.743Z,8.17
2019-01-04T16:56:39.220Z,8.20
2019-01-04T16:59:08.867Z,8.60
2019-01-04T17:01:38.738Z,8.00
2019-01-04T17:04:08.347Z,7.80
2019-01-04T17:06:39.975Z,7.13
2019-01-04T17:09:09.595Z,9.07
2019-01-04T17:11:39.173Z,7.70
2019-01-04T17:14:12.584Z,8.43
2019-01-04T17:16:42.082Z,7.67
2019-01-04T17:19:11.704Z,7.93
2019-01-04T17:21:41.282Z,7.97
2019-01-04T17:24:10.849Z,8.00
2019-01-04T17:26:40.338Z,8.03
2019-01-04T17:29:23.533Z,8.43
2019-01-04T17:31:53.210Z,9.27
2019-01-04T17:34:22.698Z,8.20
2019-01-04T17:36:57.768Z,8.10
2019-01-04T17:39:27.321Z,8.20
2019-01-04T17:41:56.831Z,9.83
2019-01-04T17:44:27.045Z,7.90
2019-01-04T17:46:56.659Z,8.33
2019-01-04T17:49:26.386Z,8.30
2019-01-04T17:51:55.981Z,9.10
2019-01-04T17:54:25.568Z,8.57
2019-01-04T17:56:55.195Z,8.37
2019-01-04T17:59:24.621Z,7.87
2019-01-04T18:01:54.268Z,8.30
2019-01-04T18:04:23.728Z,6.90
2019-01-04T18:06:53.278Z,7.80
2019-01-04T18:09:23.881Z,8.57
2019-01-04T18:11:53.364Z,7.47
2019-01-04T18:14:22.874Z,7.67
2019-01-04T18:16:52.459Z,8.83
2019-01-04T18:19:22.001Z,8.20
2019-01-04T18:21:51.540Z,7.57
2019-01-04T18:24:20.986Z,9.40
2019-01-04T18:26:50.500Z,8.30
2019-01-04T18:29:20.397Z,9.03
2019-01-04T18:31:49.934Z,9.10
2019-01-04T18:34:19.801Z,8.70
2019-01-04T18:36:49.278Z,10.13
2019-01-04T18:39:18.673Z,8.90
2019-01-04T18:41:48.042Z,9.47
2019-01-04T18:44:17.431Z,9.87
2019-01-04T18:46:47.225Z,9.27
2019-01-04T18:49:16.566Z,10.67
2019-01-04T18:51:45.827Z,10.03
2019-01-04T18:54:15.180Z,10.00
2019-01-04T18:56:44.523Z,9.50
2019-01-04T18:59:13.874Z,9.30
2019-01-04T19:01:43.242Z,10.77
2019-01-04T19:04:13.679Z,12.33
2019-01-04T19:06:42.993Z,10.73
2019-01-04T19:09:12.285Z,14.57
2019-01-04T19:11:41.717Z,11.67
2019-01-04T19:14:11.037Z,11.57
2019-01-04T19:16:40.917Z,12.50
2019-01-04T19:19:10.248Z,11.17
2019-01-04T19:21:39.602Z,12.00
2019-01-04T19:24:08.899Z,11.23
2019-01-04T19:26:38.214Z,13.53
2019-01-04T19:29:07.738Z,12.07
2019-01-04T19:31:37.017Z,11.90
2019-01-04T19:34:06.324Z,12.80
2019-01-04T19:36:35.636Z,13.20
2019-01-04T19:39:06.584Z,11.67
2019-01-04T19:41:35.878Z,12.37
2019-01-04T19:44:05.287Z,12.97
2019-01-04T19:46:34.919Z,11.83
2019-01-04T19:49:04.273Z,11.40
2019-01-04T19:51:33.724Z,10.43
2019-01-04T19:54:03.289Z,11.37
2019-01-04T19:56:32.676Z,11.90
2019-01-04T19:59:04.891Z,11.97
2019-01-04T20:01:34.198Z,11.30
2019-01-04T20:04:03.551Z,10.50
2019-01-04T20:07:16.643Z,10.33
2019-01-04T20:10:52.301Z,10.40
2019-01-04T20:14:48.802Z,9.13
2019-01-04T20:17:37.918Z,10.13
2019-01-04T20:20:39.096Z,10.83
2019-01-04T20:23:28.866Z,9.37
2019-01-04T20:26:26.272Z,9.80
2019-01-04T20:29:27.448Z,10.87
2019-01-04T20:32:18.778Z,10.33
2019-01-04T20:35:19.793Z,9.40
2019-01-04T20:38:07.958Z,10.87
2019-01-04T20:41:11.417Z,10.03
2019-01-04T20:44:08.852Z,10.50
2019-01-04T20:46:49.518Z,12.00
2019-01-04T20:49:40.234Z,10.40
2019-01-04T20:52:27.572Z,12.53
2019-01-04T20:55:15.937Z,12.03
2019-01-04T20:58:18.064Z,10.43
2019-01-04T21:01:09.516Z,12.37
2019-01-04T21:03:56.964Z,11.43
2019-01-04T21:06:37.898Z,13.00
2019-01-04T21:09:23.543Z,12.30
2019-01-04T21:12:18.391Z,12.80
2019-01-04T21:15:06.635Z,13.00
2019-01-04T21:17:54.603Z,12.40
2019-01-04T21:20:51.900Z,11.80
2019-01-04T21:23:44.640Z,12.63
2019-01-04T21:26:30.230Z,13.00
2019-01-04T21:29:17.008Z,14.03
2019-01-04T21:32:18.327Z,13.50
2019-01-04T21:35:07.025Z,14.07
2019-01-04T21:37:54.497Z,13.77
2019-01-04T21:40:52.716Z,13.97
2019-01-04T21:43:59.359Z,13.60
2019-01-04T21:46:49.073Z,14.03
2019-01-04T21:49:36.082Z,12.90
2019-01-04T21:52:42.599Z,13.97
2019-01-04T21:55:39.733Z,15.07
2019-01-04T21:58:26.849Z,11.00
2019-01-04T22:01:18.025Z,15.20
2019-01-04T22:04:09.151Z,12.90
2019-01-04T22:07:09.350Z,12.50
2019-01-04T22:10:04.911Z,15.40
2019-01-04T22:12:53.129Z,13.80
2019-01-04T22:15:54.842Z,15.13
2019-01-04T22:18:57.357Z,14.50
2019-01-04T22:21:45.834Z,14.60
2019-01-04T22:24:50.779Z,16.20
2019-01-04T22:27:34.981Z,14.33
2019-01-04T22:30:23.823Z,14.13
2019-01-04T22:33:10.835Z,12.03
2019-01-04T22:35:58.330Z,12.80
2019-01-04T22:38:52.407Z,14.07
2019-01-04T22:41:56.013Z,12.70
2019-01-04T22:44:53.369Z,13.00
2019-01-04T22:47:37.727Z,13.50
2019-01-04T22:50:39.629Z,12.27
2019-01-04T22:53:35.578Z,13.47
2019-01-04T22:56:23.007Z,14.10
2019-01-04T22:59:10.047Z,12.53
2019-01-04T23:02:01.668Z,14.27
2019-01-04T23:04:48.668Z,13.33
2019-01-04T23:07:47.289Z,14.90
2019-01-04T23:10:36.265Z,13.63
2019-01-04T23:13:18.599Z,13.33
2019-01-04T23:16:08.255Z,13.00
2019-01-04T23:18:55.159Z,14.50
2019-01-04T23:22:15.758Z,13.57
2019-01-04T23:25:07.208Z,12.20
2019-01-04T23:28:01.808Z,13.47
2019-01-04T23:30:48.764Z,14.30
2019-01-04T23:33:36.994Z,12.20
2019-01-04T23:36:24.129Z,13.10
2019-01-04T23:39:19.743Z,14.60
2019-01-04T23:42:10.788Z,15.27
2019-01-04T23:45:14.583Z,12.70
2019-01-04T23:48:01.602Z,12.60
2019-01-04T23:50:49.149Z,12.40
2019-01-04T23:53:43.990Z,12.20
2019-01-04T23:56:44.789Z,12.37
2019-01-04T23:59:39.123Z,13.00
